createdAt,value
2024-05-09T00:00:38.787Z,383.00
2024-05-09T00:01:43.499Z,383.00
2024-05-09T00:02:45.492Z,383.00
2024-05-09T00:03:47.517Z,382.17
2024-05-09T00:04:49.525Z,382.00
2024-05-09T00:05:51.711Z,381.83
2024-05-09T00:06:53.646Z,381.00
2024-05-09T00:07:55.639Z,380.00
2024-05-09T00:08:57.624Z,379.33
2024-05-09T00:09:59.558Z,377.17
2024-05-09T00:11:01.672Z,368.00
2024-05-09T00:12:04.050Z,364.83
2024-05-09T00:13:07.135Z,365.17
2024-05-09T00:14:09.472Z,366.33
2024-05-09T00:15:11.413Z,366.83
2024-05-09T00:16:13.376Z,367.00
2024-05-09T00:17:15.424Z,367.00
2024-05-09T00:18:17.590Z,367.00
2024-05-09T00:19:20.578Z,366.50
2024-05-09T00:20:28.536Z,356.00
2024-05-09T00:21:42.196Z,345.67
2024-05-09T00:22:44.187Z,346.83
2024-05-09T00:23:46.141Z,345.67
2024-05-09T00:24:48.086Z,339.67
2024-05-09T00:25:50.163Z,336.67
2024-05-09T00:26:52.125Z,340.00
2024-05-09T00:27:54.070Z,343.33
2024-05-09T00:28:56.071Z,344.00
2024-05-09T00:29:58.000Z,344.00
2024-05-09T00:30:59.954Z,342.67
2024-05-09T00:32:02.207Z,343.83
2024-05-09T00:33:06.035Z,344.83
2024-05-09T00:34:09.024Z,345.50
2024-05-09T00:35:11.188Z,346.83
2024-05-09T00:36:13.142Z,348.67
2024-05-09T00:37:15.552Z,350.50
2024-05-09T00:38:17.555Z,352.50
2024-05-09T00:39:19.522Z,353.83
2024-05-09T00:40:30.845Z,355.17
2024-05-09T00:41:40.477Z,355.67
2024-05-09T00:42:42.460Z,356.00
2024-05-09T00:43:44.416Z,356.00
2024-05-09T00:44:47.616Z,356.17
2024-05-09T00:45:49.567Z,357.67
2024-05-09T00:46:55.134Z,359.33
2024-05-09T00:48:01.423Z,360.17
2024-05-09T00:49:04.394Z,363.33
2024-05-09T00:50:12.613Z,370.17
2024-05-09T00:51:18.461Z,371.00
2024-05-09T00:52:20.989Z,372.50
2024-05-09T00:53:23.586Z,373.33
2024-05-09T00:54:26.203Z,373.17
2024-05-09T00:55:28.981Z,375.67
2024-05-09T00:56:33.690Z,377.83
2024-05-09T00:57:35.847Z,377.17
2024-05-09T00:58:38.285Z,376.33
2024-05-09T00:59:40.498Z,376.17
2024-05-09T01:00:43.192Z,376.00
2024-05-09T01:01:46.486Z,375.83
2024-05-09T01:02:48.659Z,375.00
2024-05-09T01:03:51.492Z,374.33
2024-05-09T01:04:54.320Z,372.17
2024-05-09T01:05:56.529Z,361.83
2024-05-09T01:06:58.547Z,357.83
2024-05-09T01:08:00.827Z,358.33
2024-05-09T01:09:02.923Z,358.00
2024-05-09T01:10:09.175Z,356.00
2024-05-09T01:11:16.561Z,349.17
2024-05-09T01:12:18.788Z,345.83
2024-05-09T01:13:20.944Z,344.33
2024-05-09T01:14:22.936Z,341.17
2024-05-09T01:15:24.923Z,336.50
2024-05-09T01:16:26.891Z,335.83
2024-05-09T01:17:28.977Z,335.00
2024-05-09T01:18:31.284Z,331.17
2024-05-09T01:19:34.533Z,328.33
2024-05-09T01:20:41.756Z,332.00
2024-05-09T01:21:46.108Z,329.50
2024-05-09T01:22:49.573Z,329.17
2024-05-09T01:23:51.566Z,326.33
2024-05-09T01:24:53.564Z,315.50
2024-05-09T01:25:55.596Z,314.67
2024-05-09T01:26:57.602Z,316.33
2024-05-09T01:27:59.544Z,320.33
2024-05-09T01:29:01.542Z,322.00
2024-05-09T01:30:09.027Z,325.50
2024-05-09T01:31:14.761Z,329.33
2024-05-09T01:32:16.836Z,330.50
2024-05-09T01:33:19.008Z,331.00
2024-05-09T01:34:21.228Z,331.00
2024-05-09T01:35:23.445Z,329.83
2024-05-09T01:36:25.500Z,318.83
2024-05-09T01:37:27.446Z,311.17
2024-05-09T01:38:29.598Z,313.33
2024-05-09T01:39:31.610Z,314.67
2024-05-09T01:40:38.284Z,315.33
2024-05-09T01:41:41.985Z,311.83
2024-05-09T01:42:43.963Z,299.83
2024-05-09T01:43:46.020Z,290.50
2024-05-09T01:44:47.979Z,290.50
2024-05-09T01:45:49.920Z,297.83
2024-05-09T01:46:51.906Z,301.00
2024-05-09T01:47:54.158Z,304.50
2024-05-09T01:48:56.492Z,310.83
2024-05-09T01:49:58.578Z,317.17
2024-05-09T01:51:00.672Z,321.00
2024-05-09T01:52:02.841Z,329.50
2024-05-09T01:53:05.036Z,329.17
2024-05-09T01:54:07.067Z,327.50
2024-05-09T01:55:09.121Z,324.00
2024-05-09T01:56:11.263Z,318.17
2024-05-09T01:57:13.306Z,302.33
2024-05-09T01:58:15.393Z,300.00
2024-05-09T01:59:17.379Z,300.67
2024-05-09T02:00:30.165Z,300.17
2024-05-09T02:01:56.370Z,302.17
2024-05-09T02:02:59.907Z,304.67
2024-05-09T02:04:02.527Z,304.50
2024-05-09T02:05:05.260Z,302.00
2024-05-09T02:06:07.422Z,292.33
2024-05-09T02:07:09.385Z,284.33
2024-05-09T02:08:16.999Z,278.83
2024-05-09T02:09:19.309Z,276.33
2024-05-09T02:11:24.962Z,251.33
2024-05-09T02:12:27.015Z,239.83
2024-05-09T02:13:29.003Z,238.83
2024-05-09T02:14:30.989Z,244.67
2024-05-09T02:15:32.976Z,249.33
2024-05-09T02:16:34.902Z,255.33
2024-05-09T02:17:37.065Z,258.67
2024-05-09T02:18:39.232Z,260.00
2024-05-09T02:19:41.227Z,261.33
2024-05-09T02:20:43.934Z,266.67
2024-05-09T02:21:46.194Z,275.83
2024-05-09T02:22:48.212Z,277.83
2024-05-09T02:23:50.180Z,278.00
2024-05-09T02:24:52.124Z,279.83
2024-05-09T02:25:54.095Z,288.33
2024-05-09T02:26:56.047Z,294.67
2024-05-09T02:27:58.068Z,293.83
2024-05-09T02:29:00.161Z,292.83
2024-05-09T02:30:02.143Z,292.50
2024-05-09T02:31:04.123Z,291.67
2024-05-09T02:32:06.262Z,290.00
2024-05-09T02:33:10.916Z,287.33
2024-05-09T02:34:14.803Z,285.00
2024-05-09T02:35:16.806Z,282.33
2024-05-09T02:36:18.750Z,272.67
2024-05-09T02:37:20.685Z,267.50
2024-05-09T02:38:24.597Z,267.67
2024-05-09T02:39:26.633Z,262.67
2024-05-09T02:40:35.956Z,260.17
2024-05-09T02:41:40.236Z,260.33
2024-05-09T02:42:42.172Z,262.50
2024-05-09T02:43:44.141Z,257.00
2024-05-09T02:44:46.074Z,248.67
2024-05-09T02:45:48.132Z,248.67
2024-05-09T02:46:50.082Z,252.33
2024-05-09T02:47:52.665Z,254.50
2024-05-09T02:48:54.903Z,255.00
2024-05-09T02:49:56.924Z,255.33
2024-05-09T02:51:01.610Z,261.50
2024-05-09T02:52:03.895Z,278.83
2024-05-09T02:53:12.181Z,275.50
2024-05-09T02:54:14.250Z,245.17
2024-05-09T02:55:16.200Z,220.67
2024-05-09T02:56:18.188Z,225.50
2024-05-09T02:57:20.137Z,235.17
2024-05-09T02:58:23.114Z,240.17
2024-05-09T02:59:25.233Z,241.83
2024-05-09T03:00:35.266Z,242.83
2024-05-09T03:01:41.611Z,243.00
2024-05-09T03:02:43.773Z,242.67
2024-05-09T03:03:47.379Z,242.83
2024-05-09T03:04:49.537Z,234.00
2024-05-09T03:05:51.551Z,230.33
2024-05-09T03:06:53.514Z,199.83
2024-05-09T03:07:55.556Z,165.67
2024-05-09T03:08:57.547Z,155.17
2024-05-09T03:09:59.482Z,145.50
2024-05-09T03:11:01.487Z,136.83
2024-05-09T03:12:04.033Z,138.67
2024-05-09T03:13:12.555Z,138.00
2024-05-09T03:14:16.403Z,124.00
2024-05-09T03:15:20.631Z,114.50
2024-05-09T03:16:22.576Z,106.50
2024-05-09T03:17:24.824Z,93.67
2024-05-09T03:18:26.981Z,95.17
2024-05-09T03:19:29.180Z,94.33
2024-05-09T03:20:34.730Z,103.50
2024-05-09T03:21:41.192Z,102.83
2024-05-09T03:22:43.123Z,107.83
2024-05-09T03:23:45.267Z,113.33
2024-05-09T03:24:47.319Z,98.83
2024-05-09T03:25:49.311Z,81.50
2024-05-09T03:26:51.259Z,82.50
2024-05-09T03:27:53.192Z,76.17
2024-05-09T03:28:55.147Z,66.83
2024-05-09T03:29:57.137Z,61.00
2024-05-09T03:30:59.117Z,59.50
2024-05-09T03:32:01.168Z,62.67
2024-05-09T03:33:03.546Z,56.67
2024-05-09T03:34:05.747Z,58.00
2024-05-09T03:35:08.007Z,58.33
2024-05-09T03:36:11.276Z,58.00
2024-05-09T03:37:13.583Z,59.67
2024-05-09T03:38:15.763Z,62.83
2024-05-09T03:39:17.812Z,65.50
2024-05-09T03:40:23.794Z,66.00
2024-05-09T03:41:28.605Z,64.50
2024-05-09T03:42:30.617Z,64.00
2024-05-09T03:43:32.543Z,65.00
2024-05-09T03:44:34.518Z,65.50
2024-05-09T03:45:36.550Z,66.00
2024-05-09T03:46:39.518Z,66.83
2024-05-09T03:47:41.782Z,67.83
2024-05-09T03:48:44.031Z,68.00
2024-05-09T03:49:46.107Z,68.00
2024-05-09T03:50:48.199Z,68.00
2024-05-09T03:51:50.181Z,68.67
2024-05-09T03:52:52.133Z,74.17
2024-05-09T03:53:54.114Z,78.00
2024-05-09T03:54:56.050Z,79.17
2024-05-09T03:55:58.029Z,85.33
2024-05-09T03:57:00.281Z,93.00
2024-05-09T03:58:02.263Z,92.17
2024-05-09T03:59:04.386Z,91.83
2024-05-09T04:00:14.502Z,96.17
2024-05-09T04:01:19.895Z,100.83
2024-05-09T04:02:22.029Z,105.17
2024-05-09T04:03:24.290Z,102.50
2024-05-09T04:04:26.378Z,99.50
2024-05-09T04:05:29.566Z,98.17
2024-05-09T04:06:31.567Z,101.00
2024-05-09T04:07:34.766Z,124.67
2024-05-09T04:08:36.733Z,139.67
2024-05-09T04:09:38.691Z,137.83
2024-05-09T04:10:40.940Z,139.33
2024-05-09T04:11:42.936Z,144.50
2024-05-09T04:12:45.018Z,159.17
2024-05-09T04:13:47.007Z,179.00
2024-05-09T04:14:48.960Z,198.83
2024-05-09T04:15:50.891Z,210.83
2024-05-09T04:16:52.857Z,220.33
2024-05-09T04:17:55.154Z,240.00
2024-05-09T04:18:57.391Z,251.17
2024-05-09T04:19:59.486Z,246.83
2024-05-09T04:21:05.895Z,244.00
2024-05-09T04:22:08.814Z,245.33
2024-05-09T04:23:13.478Z,244.83
2024-05-09T04:24:15.924Z,245.50
2024-05-09T04:25:17.884Z,228.17
2024-05-09T04:26:19.840Z,210.33
2024-05-09T04:27:21.830Z,192.67
2024-05-09T04:28:25.587Z,177.67
2024-05-09T04:29:27.676Z,178.17
2024-05-09T04:30:37.269Z,185.33
2024-05-09T04:31:41.959Z,182.33
2024-05-09T04:32:44.156Z,180.67
2024-05-09T04:33:46.592Z,174.67
2024-05-09T04:34:48.745Z,175.33
2024-05-09T04:35:50.690Z,176.33
2024-05-09T04:36:52.619Z,178.17
2024-05-09T04:37:54.588Z,179.00
2024-05-09T04:38:56.661Z,179.00
2024-05-09T04:39:58.598Z,178.33
2024-05-09T04:41:00.594Z,169.83
2024-05-09T04:42:02.773Z,169.50
2024-05-09T04:43:06.204Z,169.83
2024-05-09T04:44:08.566Z,166.83
2024-05-09T04:45:10.528Z,167.17
2024-05-09T04:46:13.965Z,164.33
2024-05-09T04:47:16.406Z,164.67
2024-05-09T04:48:18.647Z,170.00
2024-05-09T04:49:20.875Z,197.17
2024-05-09T04:50:30.213Z,225.17
2024-05-09T04:51:38.332Z,248.17
2024-05-09T04:52:40.257Z,243.33
2024-05-09T04:53:42.357Z,224.83
2024-05-09T04:54:44.386Z,222.17
2024-05-09T04:55:46.442Z,226.67
2024-05-09T04:56:48.436Z,227.83
2024-05-09T04:57:50.367Z,219.67
2024-05-09T04:58:52.337Z,207.33
2024-05-09T04:59:54.657Z,201.33
2024-05-09T05:00:56.651Z,188.50
2024-05-09T05:01:58.714Z,195.17
2024-05-09T05:03:04.498Z,214.17
2024-05-09T05:04:06.765Z,202.17
2024-05-09T05:05:08.902Z,183.67
2024-05-09T05:06:10.972Z,186.83
2024-05-09T05:07:13.035Z,190.00
2024-05-09T05:08:17.873Z,182.17
2024-05-09T05:09:20.739Z,181.67
2024-05-09T05:10:32.888Z,185.83
2024-05-09T05:11:37.639Z,209.83
2024-05-09T05:12:58.223Z,244.67
2024-05-09T05:14:00.199Z,241.67
2024-05-09T05:15:02.234Z,228.33
2024-05-09T05:16:04.550Z,207.50
2024-05-09T05:17:06.607Z,173.33
2024-05-09T05:18:08.982Z,172.17
2024-05-09T05:19:13.486Z,174.17
2024-05-09T05:20:26.960Z,180.17
2024-05-09T05:21:33.187Z,164.33
2024-05-09T05:22:35.153Z,229.00
2024-05-09T05:23:37.239Z,408.50
2024-05-09T05:24:39.231Z,388.67
2024-05-09T05:25:41.707Z,323.83
2024-05-09T05:26:43.722Z,273.50
2024-05-09T05:27:45.686Z,239.50
2024-05-09T05:28:47.658Z,222.50
2024-05-09T05:29:50.969Z,201.33
2024-05-09T05:30:52.926Z,177.17
2024-05-09T05:31:55.028Z,153.83
2024-05-09T05:32:57.146Z,133.50
2024-05-09T05:33:59.211Z,122.83
2024-05-09T05:35:01.321Z,126.67
2024-05-09T05:36:03.532Z,160.83
2024-05-09T05:37:05.469Z,189.33
2024-05-09T05:38:08.971Z,208.50
2024-05-09T05:39:11.594Z,197.67
2024-05-09T05:40:20.957Z,161.00
2024-05-09T05:41:29.698Z,147.33
2024-05-09T05:42:31.666Z,153.33
2024-05-09T05:43:33.598Z,145.83
2024-05-09T05:44:35.558Z,136.67
2024-05-09T05:45:38.210Z,145.67
2024-05-09T05:46:40.798Z,154.83
2024-05-09T05:47:42.980Z,155.83
2024-05-09T05:48:45.124Z,140.00
2024-05-09T05:49:47.192Z,142.33
2024-05-09T05:50:49.251Z,161.67
2024-05-09T05:51:51.225Z,173.17
2024-05-09T05:52:53.192Z,167.67
2024-05-09T05:53:55.149Z,151.33
2024-05-09T05:54:57.074Z,146.50
2024-05-09T05:55:59.083Z,166.17
2024-05-09T05:57:01.034Z,237.50
2024-05-09T05:58:03.100Z,260.67
2024-05-09T05:59:05.075Z,257.17
2024-05-09T06:00:09.796Z,239.67
2024-05-09T06:01:12.164Z,235.83
2024-05-09T06:02:14.280Z,240.00
2024-05-09T06:03:16.444Z,230.00
2024-05-09T06:04:18.607Z,199.33
2024-05-09T06:05:20.646Z,149.50
2024-05-09T06:06:22.612Z,120.33
2024-05-09T06:07:24.553Z,106.33
2024-05-09T06:08:30.154Z,110.67
2024-05-09T06:09:33.315Z,111.33
2024-05-09T06:10:39.185Z,108.00
2024-05-09T06:11:42.914Z,90.33
2024-05-09T06:12:44.949Z,69.33
2024-05-09T06:13:46.918Z,61.17
2024-05-09T06:14:48.890Z,64.83
2024-05-09T06:15:50.830Z,66.83
2024-05-09T06:16:55.361Z,62.83
2024-05-09T06:17:59.473Z,62.50
2024-05-09T06:19:01.574Z,58.67
2024-05-09T06:20:04.661Z,73.17
2024-05-09T06:21:09.296Z,143.17
2024-05-09T06:22:11.236Z,174.67
2024-05-09T06:23:13.662Z,171.17
2024-05-09T06:24:15.717Z,167.50
2024-05-09T06:25:17.679Z,189.33
2024-05-09T06:26:19.724Z,193.67
2024-05-09T06:27:21.695Z,198.50
2024-05-09T06:28:23.636Z,206.17
2024-05-09T06:29:25.693Z,192.33
2024-05-09T06:30:36.785Z,178.83
2024-05-09T06:31:42.914Z,175.00
2024-05-09T06:32:44.967Z,174.17
2024-05-09T06:33:47.193Z,181.83
2024-05-09T06:34:49.348Z,219.83
2024-05-09T06:35:53.783Z,238.50
2024-05-09T06:36:55.708Z,230.00
2024-05-09T06:37:57.714Z,203.33
2024-05-09T06:38:59.686Z,201.17
2024-05-09T06:40:01.694Z,215.33
2024-05-09T06:41:04.993Z,209.17
2024-05-09T06:42:06.959Z,192.17
2024-05-09T06:43:17.793Z,176.00
2024-05-09T06:44:22.178Z,157.17
2024-05-09T06:45:24.166Z,146.83
2024-05-09T06:46:26.100Z,124.83
2024-05-09T06:47:28.196Z,118.50
2024-05-09T06:48:30.437Z,135.00
2024-05-09T06:49:32.568Z,142.17
2024-05-09T06:50:37.791Z,125.00
2024-05-09T06:51:41.232Z,122.33
2024-05-09T06:52:46.395Z,128.83
2024-05-09T06:53:48.453Z,126.17
2024-05-09T06:54:50.384Z,133.50
2024-05-09T06:55:52.514Z,173.33
2024-05-09T06:56:54.583Z,176.00
2024-05-09T06:57:56.526Z,153.33
2024-05-09T06:58:58.492Z,126.83
2024-05-09T07:00:00.517Z,146.17
2024-05-09T07:01:02.895Z,109.00
2024-05-09T07:02:05.028Z,82.83
2024-05-09T07:03:08.457Z,65.33
2024-05-09T07:04:10.778Z,60.33
2024-05-09T07:05:12.984Z,59.17
2024-05-09T07:06:15.054Z,59.83
2024-05-09T07:07:16.984Z,45.00
2024-05-09T07:08:19.445Z,41.00
2024-05-09T07:09:21.519Z,40.83
2024-05-09T07:10:29.069Z,39.33
2024-05-09T07:11:37.031Z,39.50
2024-05-09T07:12:39.056Z,48.50
2024-05-09T07:13:40.995Z,47.83
2024-05-09T07:14:43.017Z,40.83
2024-05-09T07:15:44.970Z,33.50
2024-05-09T07:16:47.036Z,25.67
2024-05-09T07:17:49.214Z,23.83
2024-05-09T07:18:53.903Z,22.33
2024-05-09T07:19:56.121Z,22.83
2024-05-09T07:20:58.150Z,26.33
2024-05-09T07:22:00.274Z,32.17
2024-05-09T07:23:02.563Z,39.83
2024-05-09T07:24:04.891Z,47.67
2024-05-09T07:25:06.873Z,48.50
2024-05-09T07:26:08.869Z,48.00
2024-05-09T07:27:10.824Z,49.67
2024-05-09T07:28:19.339Z,55.67
2024-05-09T07:29:21.417Z,55.33
2024-05-09T07:30:30.555Z,55.67
2024-05-09T07:31:35.749Z,57.50
2024-05-09T07:32:37.890Z,63.17
2024-05-09T07:33:40.002Z,69.67
2024-05-09T07:34:42.343Z,68.67
2024-05-09T07:35:44.336Z,71.00
2024-05-09T07:36:46.301Z,77.33
2024-05-09T07:37:49.088Z,78.50
2024-05-09T07:38:51.122Z,82.17
2024-05-09T07:39:53.099Z,83.50
2024-05-09T07:40:55.156Z,80.33
2024-05-09T07:41:57.147Z,76.67
2024-05-09T07:42:59.074Z,63.67
2024-05-09T07:44:01.082Z,57.50
2024-05-09T07:45:21.344Z,59.50
2024-05-09T07:47:20.374Z,85.67
2024-05-09T07:49:13.254Z,108.17
2024-05-09T07:53:31.985Z,67.00
2024-05-09T07:53:49.906Z,69.83
2024-05-09T07:54:54.567Z,99.83
2024-05-09T07:55:57.199Z,123.33
2024-05-09T07:56:59.509Z,126.17
2024-05-09T07:58:01.588Z,101.67
2024-05-09T07:59:03.559Z,73.50
2024-05-09T08:00:06.801Z,56.50
2024-05-09T08:01:08.983Z,48.50
2024-05-09T08:02:11.207Z,49.00
2024-05-09T08:03:13.480Z,48.83
2024-05-09T08:04:15.627Z,39.67
2024-05-09T08:05:17.763Z,38.00
2024-05-09T08:06:20.071Z,36.50
2024-05-09T08:07:22.091Z,28.00
2024-05-09T08:08:24.109Z,25.17
2024-05-09T08:09:26.067Z,23.33
2024-05-09T08:10:29.471Z,21.33
2024-05-09T08:11:31.761Z,24.00
2024-05-09T08:12:33.850Z,21.50
2024-05-09T08:13:36.357Z,20.17
2024-05-09T08:14:38.308Z,17.50
2024-05-09T08:15:40.333Z,13.67
2024-05-09T08:16:42.329Z,12.33
2024-05-09T08:17:44.377Z,11.33
2024-05-09T08:18:46.545Z,11.83
2024-05-09T08:19:48.752Z,14.33
2024-05-09T08:21:06.409Z,16.00
2024-05-09T08:22:08.454Z,15.50
2024-05-09T08:23:10.500Z,134.00
2024-05-09T08:24:12.460Z,126.50
2024-05-09T08:25:14.606Z,109.33
2024-05-09T08:26:16.597Z,86.83
2024-05-09T08:27:18.599Z,148.50
2024-05-09T08:28:20.750Z,94.33
2024-05-09T08:29:22.763Z,60.50
2024-05-09T08:30:32.541Z,40.50
2024-05-09T08:31:38.642Z,52.17
2024-05-09T08:32:40.682Z,73.67
2024-05-09T08:33:45.332Z,82.83
2024-05-09T08:34:47.496Z,69.50
2024-05-09T08:35:49.839Z,43.00
2024-05-09T08:36:52.014Z,47.17
2024-05-09T08:37:53.999Z,43.83
2024-05-09T08:38:55.981Z,25.67
2024-05-09T08:39:57.939Z,18.00
2024-05-09T08:41:03.162Z,15.67
2024-05-09T08:42:07.342Z,15.50
2024-05-09T08:43:11.282Z,16.17
2024-05-09T08:44:14.964Z,18.83
2024-05-09T08:45:17.710Z,21.33
2024-05-09T08:46:19.738Z,22.33
2024-05-09T08:47:21.879Z,21.83
2024-05-09T08:48:25.198Z,20.33
2024-05-09T08:49:27.774Z,18.50
2024-05-09T08:50:37.699Z,17.00
2024-05-09T08:51:42.717Z,18.00
2024-05-09T08:52:44.699Z,19.00
2024-05-09T08:53:46.681Z,18.33
2024-05-09T08:54:48.706Z,18.83
2024-05-09T08:55:50.895Z,21.50
2024-05-09T08:56:53.042Z,22.00
2024-05-09T08:57:55.937Z,23.00
2024-05-09T08:59:01.221Z,23.00
2024-05-09T09:00:08.048Z,23.17
2024-05-09T09:01:13.760Z,24.33
2024-05-09T09:02:18.048Z,25.00
2024-05-09T09:03:26.079Z,23.67
2024-05-09T09:04:32.160Z,20.50
2024-05-09T09:05:38.426Z,16.33
2024-05-09T09:06:42.218Z,13.33
2024-05-09T09:07:50.368Z,12.00
2024-05-09T09:08:52.570Z,12.00
2024-05-09T09:09:55.511Z,11.83
2024-05-09T09:10:58.418Z,11.00
2024-05-09T09:12:00.416Z,10.50
2024-05-09T09:13:03.313Z,9.17
2024-05-09T09:14:05.242Z,7.50
2024-05-09T09:15:07.238Z,6.33
2024-05-09T09:16:09.245Z,6.00
2024-05-09T09:17:15.668Z,6.83
2024-05-09T09:18:18.383Z,7.50
2024-05-09T09:19:22.377Z,8.00
2024-05-09T09:20:34.014Z,8.67
2024-05-09T09:21:38.671Z,10.00
2024-05-09T09:22:41.100Z,10.00
2024-05-09T09:23:43.031Z,9.67
2024-05-09T09:24:45.073Z,9.00
2024-05-09T09:25:47.144Z,8.67
2024-05-09T09:26:49.329Z,8.00
2024-05-09T09:27:51.614Z,8.00
2024-05-09T09:29:00.626Z,8.00
2024-05-09T09:30:03.502Z,8.00
2024-05-09T09:31:05.588Z,8.00
2024-05-09T09:32:08.999Z,8.50
2024-05-09T09:33:11.770Z,9.67
2024-05-09T09:34:14.106Z,10.00
2024-05-09T09:35:16.401Z,10.00
2024-05-09T09:36:18.477Z,10.17
2024-05-09T09:37:27.452Z,10.17
2024-05-09T09:38:31.370Z,9.50
2024-05-09T09:39:35.420Z,8.33
2024-05-09T09:40:49.427Z,8.00
2024-05-09T09:41:55.429Z,7.17
2024-05-09T09:42:57.888Z,7.83
2024-05-09T09:44:01.436Z,8.00
2024-05-09T09:45:05.622Z,7.33
2024-05-09T09:46:11.756Z,7.00
2024-05-09T09:47:17.188Z,6.17
2024-05-09T09:48:20.657Z,6.00
2024-05-09T09:49:24.004Z,6.00
2024-05-09T09:50:33.404Z,6.00
2024-05-09T09:51:42.427Z,7.00
2024-05-09T09:52:44.939Z,7.00
2024-05-09T09:53:49.648Z,7.00
2024-05-09T09:54:55.212Z,7.00
2024-05-09T09:55:58.196Z,7.00
2024-05-09T09:57:02.496Z,7.00
2024-05-09T09:58:07.009Z,7.00
2024-05-09T09:59:14.687Z,7.00
2024-05-09T10:00:24.023Z,7.00
2024-05-09T10:01:29.829Z,7.00
2024-05-09T10:02:32.121Z,7.00
2024-05-09T10:03:34.463Z,7.00
2024-05-09T10:04:36.852Z,6.00
2024-05-09T10:05:42.169Z,6.00
2024-05-09T10:06:55.831Z,6.00
2024-05-09T10:08:03.630Z,6.00
2024-05-09T10:09:06.340Z,6.00
2024-05-09T10:10:13.776Z,5.67
2024-05-09T10:11:21.303Z,5.00
2024-05-09T10:12:23.721Z,5.00
2024-05-09T10:13:33.568Z,4.17
2024-05-09T10:14:49.432Z,4.00
2024-05-09T10:15:53.616Z,3.50
2024-05-09T10:17:15.147Z,3.00
2024-05-09T10:18:23.709Z,3.00
2024-05-09T10:19:27.270Z,3.00
2024-05-09T10:20:41.912Z,3.00
2024-05-09T10:21:46.865Z,3.00
2024-05-09T10:22:49.440Z,3.00
2024-05-09T10:24:01.764Z,3.00
2024-05-09T10:25:06.309Z,3.00
2024-05-09T10:26:08.310Z,2.33
2024-05-09T10:27:10.306Z,2.33
2024-05-09T10:28:12.448Z,3.00
2024-05-09T10:29:17.781Z,3.00
2024-05-09T10:30:29.623Z,3.00
2024-05-09T10:31:40.824Z,3.00
2024-05-09T10:32:44.206Z,3.00
2024-05-09T10:33:51.987Z,3.00
2024-05-09T10:35:11.553Z,2.33
2024-05-09T10:36:24.861Z,2.00
2024-05-09T10:37:29.746Z,2.00
2024-05-09T10:38:31.868Z,2.00
2024-05-09T10:39:38.030Z,2.00
2024-05-09T10:40:41.016Z,2.00
2024-05-09T10:41:43.146Z,2.00
2024-05-09T10:42:45.188Z,2.00
2024-05-09T10:43:47.938Z,2.00
2024-05-09T10:44:51.498Z,2.00
2024-05-09T10:45:53.490Z,2.00
2024-05-09T10:46:55.889Z,2.00
2024-05-09T10:47:58.082Z,2.00
2024-05-09T10:49:03.308Z,2.00
2024-05-09T10:50:15.717Z,2.00
2024-05-09T10:51:24.373Z,2.00
2024-05-09T10:52:26.370Z,2.00
2024-05-09T10:53:28.364Z,2.00
2024-05-09T10:54:37.719Z,2.00
2024-05-09T10:55:39.652Z,2.00
2024-05-09T10:56:41.585Z,2.00
2024-05-09T10:57:43.583Z,2.00
2024-05-09T10:58:45.573Z,2.00
2024-05-09T10:59:50.364Z,2.00
2024-05-09T11:00:56.322Z,2.00
2024-05-09T11:02:03.019Z,2.00
2024-05-09T11:03:05.296Z,2.00
2024-05-09T11:04:07.601Z,2.00
2024-05-09T11:05:09.791Z,2.00
2024-05-09T11:06:17.261Z,2.00
2024-05-09T11:07:20.372Z,2.50
2024-05-09T11:08:23.432Z,3.33
2024-05-09T11:09:25.446Z,4.00
2024-05-09T11:10:33.609Z,4.00
2024-05-09T11:11:36.475Z,4.00
2024-05-09T11:12:38.646Z,4.00
2024-05-09T11:13:41.071Z,4.00
2024-05-09T11:14:55.286Z,4.00
2024-05-09T11:15:58.081Z,4.00
2024-05-09T11:17:05.964Z,4.00
2024-05-09T11:18:25.256Z,4.00
2024-05-09T11:19:30.189Z,4.00
2024-05-09T11:20:36.654Z,4.00
2024-05-09T11:21:39.529Z,4.00
2024-05-09T11:22:41.493Z,4.00
2024-05-09T11:23:43.492Z,4.17
2024-05-09T11:24:45.492Z,5.00
2024-05-09T11:25:51.975Z,5.00
2024-05-09T11:26:59.036Z,5.00
2024-05-09T11:28:01.934Z,5.00
2024-05-09T11:29:03.965Z,4.67
2024-05-09T11:30:26.592Z,4.00
2024-05-09T11:31:47.580Z,4.00
2024-05-09T11:32:49.735Z,4.00
2024-05-09T11:33:53.713Z,4.00
2024-05-09T11:34:55.710Z,4.00
2024-05-09T11:35:57.724Z,4.00
2024-05-09T11:37:00.041Z,4.00
2024-05-09T11:38:02.205Z,3.50
2024-05-09T11:39:04.128Z,3.00
2024-05-09T11:40:11.649Z,3.00
2024-05-09T11:41:19.110Z,3.00
2024-05-09T11:42:21.396Z,3.00
2024-05-09T11:43:23.405Z,3.00
2024-05-09T11:44:26.221Z,3.00
2024-05-09T11:45:28.454Z,3.00
2024-05-09T11:46:30.475Z,3.00
2024-05-09T11:47:32.483Z,3.00
2024-05-09T11:48:34.704Z,3.00
2024-05-09T11:49:36.752Z,3.00
2024-05-09T11:50:38.708Z,3.00
2024-05-09T11:51:40.668Z,3.00
2024-05-09T11:52:42.611Z,3.00
2024-05-09T11:53:44.546Z,3.00
2024-05-09T11:54:46.572Z,3.00
2024-05-09T11:55:48.701Z,3.00
2024-05-09T11:56:50.675Z,3.00
2024-05-09T11:57:52.690Z,3.00
2024-05-09T11:58:54.720Z,3.00
2024-05-09T11:59:56.667Z,3.33
2024-05-09T12:00:59.607Z,4.00
2024-05-09T12:02:01.783Z,4.00
2024-05-09T12:03:04.340Z,4.17
2024-05-09T12:04:07.021Z,5.00
2024-05-09T12:05:09.314Z,5.00
2024-05-09T12:06:11.484Z,4.67
2024-05-09T12:07:13.988Z,4.00
2024-05-09T12:08:15.987Z,4.00
2024-05-09T12:09:17.920Z,4.00
2024-05-09T12:10:26.002Z,4.00
2024-05-09T12:11:33.186Z,4.00
2024-05-09T12:12:37.251Z,4.00
2024-05-09T12:13:39.444Z,4.00
2024-05-09T12:14:41.872Z,4.00
2024-05-09T12:15:43.829Z,4.00
2024-05-09T12:16:45.892Z,4.00
2024-05-09T12:17:50.725Z,4.00
2024-05-09T12:18:53.073Z,4.00
2024-05-09T12:19:55.112Z,4.00
2024-05-09T12:20:57.056Z,4.00
2024-05-09T12:21:59.128Z,4.00
2024-05-09T12:23:01.107Z,5.00
2024-05-09T12:24:03.137Z,5.00
2024-05-09T12:25:05.802Z,5.67
2024-05-09T12:26:09.022Z,6.83
2024-05-09T12:27:10.983Z,7.00
2024-05-09T12:28:14.739Z,7.00
2024-05-09T12:29:19.980Z,7.00
2024-05-09T12:30:32.627Z,7.00
2024-05-09T12:31:39.293Z,7.00
2024-05-09T12:32:41.387Z,6.67
2024-05-09T12:33:46.327Z,6.00
2024-05-09T12:34:48.349Z,6.00
2024-05-09T12:35:51.183Z,6.00
2024-05-09T12:36:53.318Z,6.00
2024-05-09T12:37:55.309Z,6.00
2024-05-09T12:38:57.391Z,6.00
2024-05-09T12:39:59.413Z,6.00
2024-05-09T12:41:01.459Z,7.00
2024-05-09T12:42:03.815Z,7.00
2024-05-09T12:43:06.961Z,7.00
2024-05-09T12:44:09.241Z,7.00
2024-05-09T12:45:11.173Z,7.00
2024-05-09T12:46:13.172Z,7.00
2024-05-09T12:47:15.241Z,7.00
2024-05-09T12:48:17.303Z,6.33
2024-05-09T12:49:21.008Z,6.00
2024-05-09T12:50:29.865Z,6.00
2024-05-09T12:51:34.865Z,6.00
2024-05-09T12:52:36.826Z,6.00
2024-05-09T12:53:38.758Z,6.67
2024-05-09T12:54:40.707Z,7.50
2024-05-09T12:55:49.036Z,8.33
2024-05-09T12:56:59.454Z,9.00
2024-05-09T12:58:01.488Z,9.00
2024-05-09T12:59:03.475Z,9.00
2024-05-09T13:00:09.342Z,9.00
2024-05-09T13:01:13.605Z,9.00
2024-05-09T13:02:15.879Z,9.00
2024-05-09T13:03:18.017Z,9.00
2024-05-09T13:04:20.249Z,9.00
2024-05-09T13:05:22.336Z,9.00
2024-05-09T13:06:24.367Z,9.00
2024-05-09T13:07:26.358Z,9.00
2024-05-09T13:08:28.481Z,9.33
2024-05-09T13:09:30.480Z,21.33
2024-05-09T13:10:33.529Z,36.33
2024-05-09T13:11:35.894Z,31.50
2024-05-09T13:12:37.905Z,28.17
2024-05-09T13:13:39.826Z,26.83
2024-05-09T13:14:41.785Z,27.33
2024-05-09T13:15:43.804Z,35.00
2024-05-09T13:16:45.881Z,38.17
2024-05-09T13:17:47.895Z,37.33
2024-05-09T13:18:50.181Z,34.50
2024-05-09T13:19:52.316Z,33.33
2024-05-09T13:20:54.239Z,31.33
2024-05-09T13:21:56.209Z,27.83
2024-05-09T13:23:01.087Z,23.17
2024-05-09T13:24:03.156Z,19.17
2024-05-09T13:25:05.326Z,16.67
2024-05-09T13:26:07.594Z,14.17
2024-05-09T13:27:09.580Z,11.67
2024-05-09T13:28:11.610Z,10.33
2024-05-09T13:29:13.629Z,9.33
2024-05-09T13:30:25.843Z,9.17
2024-05-09T13:31:32.154Z,10.00
2024-05-09T13:32:34.396Z,10.67
2024-05-09T13:33:36.548Z,11.00
2024-05-09T13:34:38.639Z,11.00
2024-05-09T13:36:43.991Z,11.00
2024-05-09T13:37:46.491Z,10.50
2024-05-09T13:38:48.481Z,10.00
2024-05-09T13:39:51.058Z,10.00